createdAt,value
2022-12-12T00:01:23.387Z,10
2022-12-12T00:11:30.729Z,9
2022-12-12T00:21:30.824Z,10
2022-12-12T00:31:36.850Z,10
2022-12-12T00:41:42.730Z,9
2022-12-12T00:51:49.240Z,10
2022-12-12T01:01:53.252Z,9
2022-12-12T01:12:00.243Z,8
2022-12-12T01:22:05.169Z,8
2022-12-12T01:32:10.866Z,7
2022-12-12T01:42:16.115Z,9
2022-12-12T01:52:22.907Z,10
2022-12-12T02:02:29.027Z,8
2022-12-12T02:12:35.544Z,8
2022-12-12T02:22:42.510Z,8
2022-12-12T02:32:46.925Z,6
2022-12-12T02:42:52.875Z,7
2022-12-12T02:53:00.331Z,8
2022-12-12T03:03:06.778Z,9
2022-12-12T03:13:13.417Z,18
2022-12-12T03:23:20.172Z,12
2022-12-12T03:33:26.239Z,9
2022-12-12T03:43:32.480Z,7
2022-12-12T03:53:38.248Z,7
2022-12-12T04:03:43.418Z,6
2022-12-12T04:13:48.060Z,10
2022-12-12T04:23:52.744Z,11
2022-12-12T04:33:57.704Z,14
2022-12-12T04:44:04.053Z,11
2022-12-12T04:54:11.006Z,12
2022-12-12T05:04:18.158Z,7
2022-12-12T05:14:25.108Z,9
2022-12-12T05:24:32.192Z,10
2022-12-12T05:34:36.699Z,8
2022-12-12T05:44:41.809Z,8
2022-12-12T05:54:45.872Z,6
2022-12-12T06:04:53.868Z,7
2022-12-12T06:14:59.965Z,7
2022-12-12T06:25:02.841Z,8
2022-12-12T06:35:09.946Z,7
2022-12-12T06:45:15.464Z,8
2022-12-12T06:55:21.265Z,7
2022-12-12T07:05:26.081Z,11
2022-12-12T07:15:30.790Z,15
2022-12-12T07:25:36.118Z,8
2022-12-12T07:35:40.693Z,13
2022-12-12T07:45:54.870Z,10
2022-12-12T07:55:55.285Z,8
2022-12-12T08:06:01.194Z,11
2022-12-12T08:16:07.495Z,10
2022-12-12T08:26:14.952Z,10
2022-12-12T08:36:20.452Z,7
2022-12-12T08:46:25.533Z,10
2022-12-12T08:56:31.431Z,8
2022-12-12T09:06:37.739Z,9
2022-12-12T09:16:43.840Z,11
2022-12-12T09:26:49.658Z,29
2022-12-12T09:36:54.175Z,9
2022-12-12T09:46:59.898Z,8
2022-12-12T09:57:06.871Z,12
2022-12-12T10:07:28.212Z,9
2022-12-12T10:17:28.208Z,7
2022-12-12T10:27:27.795Z,9
2022-12-12T10:37:32.616Z,8
2022-12-12T10:47:39.374Z,8
2022-12-12T10:57:51.049Z,8
2022-12-12T11:07:50.622Z,7
2022-12-12T11:17:55.741Z,9
2022-12-12T11:28:07.247Z,8
2022-12-12T11:38:07.947Z,11
2022-12-12T11:48:12.574Z,14
2022-12-12T11:58:17.254Z,11
2022-12-12T12:08:23.997Z,9
2022-12-12T12:18:29.448Z,10
2022-12-12T12:28:34.832Z,9
2022-12-12T12:38:39.258Z,7
2022-12-12T12:48:52.695Z,8
2022-12-12T12:58:51.046Z,8
2022-12-12T13:08:57.904Z,9
2022-12-12T13:19:17.324Z,15
2022-12-12T13:29:11.296Z,11
2022-12-12T13:39:17.788Z,8
2022-12-12T13:49:29.488Z,10
2022-12-12T13:59:27.061Z,8
2022-12-12T14:09:49.245Z,14
2022-12-12T14:19:43.905Z,18
2022-12-12T14:29:49.731Z,16
2022-12-12T14:39:56.025Z,14
2022-12-12T14:50:08.662Z,13
2022-12-12T15:00:13.665Z,15
2022-12-12T15:10:18.808Z,15
2022-12-12T15:20:23.198Z,16
2022-12-12T15:30:29.873Z,27
2022-12-12T15:40:35.778Z,20
2022-12-12T15:50:42.792Z,51
2022-12-12T16:00:48.253Z,25
2022-12-12T16:10:51.598Z,27
2022-12-12T16:21:03.154Z,25
2022-12-12T16:31:01.575Z,25
2022-12-12T16:41:07.847Z,27
2022-12-12T16:51:14.334Z,25
2022-12-12T17:01:18.404Z,15
2022-12-12T17:11:22.849Z,17
2022-12-12T17:21:28.532Z,29
2022-12-12T17:31:33.080Z,16
2022-12-12T17:41:39.733Z,30
2022-12-12T17:51:46.890Z,20
2022-12-12T18:02:11.041Z,20
2022-12-12T18:12:15.973Z,14
2022-12-12T18:22:49.953Z,14
2022-12-12T18:32:43.134Z,17
2022-12-12T18:42:47.425Z,16
2022-12-12T18:52:52.820Z,11
2022-12-12T19:02:58.104Z,13
2022-12-12T19:13:01.820Z,14
2022-12-12T19:23:40.556Z,17
2022-12-12T19:33:34.075Z,15
2022-12-12T19:43:39.165Z,14
2022-12-12T19:53:44.054Z,15
2022-12-12T20:03:50.922Z,15
2022-12-12T20:13:56.292Z,17
2022-12-12T20:24:16.496Z,17
2022-12-12T20:34:13.461Z,15
2022-12-12T20:44:19.821Z,16
2022-12-12T20:54:25.124Z,18
2022-12-12T21:04:30.887Z,19
2022-12-12T21:14:39.253Z,20
2022-12-12T21:24:45.060Z,29
2022-12-12T21:34:50.956Z,20
2022-12-12T21:44:56.215Z,27
2022-12-12T21:55:02.276Z,33
2022-12-12T22:05:07.380Z,29
2022-12-12T22:15:13.487Z,22
2022-12-12T22:25:18.815Z,21
2022-12-12T22:35:27.272Z,15
2022-12-12T22:45:29.765Z,34
2022-12-12T22:55:36.880Z,15
2022-12-12T23:05:40.932Z,19
2022-12-12T23:15:45.451Z,13
2022-12-12T23:25:49.148Z,20
2022-12-12T23:35:55.370Z,14
2022-12-12T23:46:00.394Z,14
2022-12-12T23:56:07.299Z,12
